sensor_id;sensor_type;location;lat;lon;timestamp;P1;durP1;ratioP1;P2;durP2;ratioP2
23543;SDS011;11950;51.230;4.012;2023-03-14T00:02:10;5.50;;;0.90;;
23543;SDS011;11950;51.230;4.012;2023-03-14T00:04:37;7.10;;;0.80;;
23543;SDS011;11950;51.230;4.012;2023-03-14T00:07:03;3.08;;;0.50;;
23543;SDS011;11950;51.230;4.012;2023-03-14T00:09:30;3.72;;;0.70;;
23543;SDS011;11950;51.230;4.012;2023-03-14T00:11:56;5.70;;;0.70;;
23543;SDS011;11950;51.230;4.012;2023-03-14T00:14:23;5.32;;;0.93;;
23543;SDS011;11950;51.230;4.012;2023-03-14T00:16:49;2.90;;;0.70;;
23543;SDS011;11950;51.230;4.012;2023-03-14T00:19:15;5.93;;;0.75;;
23543;SDS011;11950;51.230;4.012;2023-03-14T00:21:41;6.00;;;0.65;;
23543;SDS011;11950;51.230;4.012;2023-03-14T00:24:08;2.75;;;0.70;;
23543;SDS011;11950;51.230;4.012;2023-03-14T00:26:34;8.32;;;0.80;;
23543;SDS011;11950;51.230;4.012;2023-03-14T00:29:01;6.70;;;0.80;;
23543;SDS011;11950;51.230;4.012;2023-03-14T00:31:27;2.95;;;0.70;;
23543;SDS011;11950;51.230;4.012;2023-03-14T00:33:53;4.63;;;0.60;;
23543;SDS011;11950;51.230;4.012;2023-03-14T00:36:20;4.50;;;0.75;;
23543;SDS011;11950;51.230;4.012;2023-03-14T00:38:48;3.10;;;0.70;;
23543;SDS011;11950;51.230;4.012;2023-03-14T00:41:17;4.05;;;0.70;;
23543;SDS011;11950;51.230;4.012;2023-03-14T00:43:45;2.33;;;0.68;;
23543;SDS011;11950;51.230;4.012;2023-03-14T00:46:12;5.88;;;0.77;;
23543;SDS011;11950;51.230;4.012;2023-03-14T00:48:38;4.47;;;0.70;;
23543;SDS011;11950;51.230;4.012;2023-03-14T00:51:05;4.68;;;0.75;;
23543;SDS011;11950;51.230;4.012;2023-03-14T00:53:36;3.42;;;0.63;;
23543;SDS011;11950;51.230;4.012;2023-03-14T00:56:05;7.18;;;0.70;;
23543;SDS011;11950;51.230;4.012;2023-03-14T00:58:33;6.53;;;0.63;;
23543;SDS011;11950;51.230;4.012;2023-03-14T01:01:04;4.72;;;0.52;;
23543;SDS011;11950;51.230;4.012;2023-03-14T01:03:32;5.75;;;0.70;;
23543;SDS011;11950;51.230;4.012;2023-03-14T01:08:38;5.68;;;0.70;;
23543;SDS011;11950;51.230;4.012;2023-03-14T01:11:08;6.53;;;0.80;;
23543;SDS011;11950;51.230;4.012;2023-03-14T01:13:36;5.13;;;0.93;;
23543;SDS011;11950;51.230;4.012;2023-03-14T01:16:03;6.65;;;1.13;;
23543;SDS011;11950;51.230;4.012;2023-03-14T01:18:32;7.20;;;0.80;;
23543;SDS011;11950;51.230;4.012;2023-03-14T01:21:01;8.65;;;0.90;;
23543;SDS011;11950;51.230;4.012;2023-03-14T01:23:28;4.55;;;0.80;;
23543;SDS011;11950;51.230;4.012;2023-03-14T01:25:55;5.22;;;0.82;;
23543;SDS011;11950;51.230;4.012;2023-03-14T01:28:21;7.43;;;1.23;;
23543;SDS011;11950;51.230;4.012;2023-03-14T01:30:47;9.13;;;1.02;;
23543;SDS011;11950;51.230;4.012;2023-03-14T01:33:14;5.50;;;0.70;;
23543;SDS011;11950;51.230;4.012;2023-03-14T01:35:43;6.43;;;0.90;;
23543;SDS011;11950;51.230;4.012;2023-03-14T01:38:09;8.10;;;0.90;;
23543;SDS011;11950;51.230;4.012;2023-03-14T01:40:41;3.72;;;1.00;;
23543;SDS011;11950;51.230;4.012;2023-03-14T01:43:13;6.47;;;0.90;;
23543;SDS011;11950;51.230;4.012;2023-03-14T01:51:41;5.35;;;0.80;;
23543;SDS011;11950;51.230;4.012;2023-03-14T01:54:37;6.38;;;0.82;;
23543;SDS011;11950;51.230;4.012;2023-03-14T01:59:45;3.40;;;0.85;;
23543;SDS011;11950;51.230;4.012;2023-03-14T02:02:24;5.57;;;1.03;;
23543;SDS011;11950;51.230;4.012;2023-03-14T02:04:52;6.65;;;1.23;;
23543;SDS011;11950;51.230;4.012;2023-03-14T02:07:28;5.88;;;0.98;;
23543;SDS011;11950;51.230;4.012;2023-03-14T02:10:10;7.68;;;0.90;;
23543;SDS011;11950;51.230;4.012;2023-03-14T02:12:36;5.15;;;0.80;;
23543;SDS011;11950;51.230;4.012;2023-03-14T02:15:10;6.00;;;1.15;;
23543;SDS011;11950;51.230;4.012;2023-03-14T02:17:49;3.47;;;0.80;;
23543;SDS011;11950;51.230;4.012;2023-03-14T02:23:09;3.75;;;0.70;;
23543;SDS011;11950;51.230;4.012;2023-03-14T02:25:47;5.13;;;0.70;;
23543;SDS011;11950;51.230;4.012;2023-03-14T02:28:18;3.25;;;0.70;;
23543;SDS011;11950;51.230;4.012;2023-03-14T02:30:47;4.28;;;0.82;;
23543;SDS011;11950;51.230;4.012;2023-03-14T02:33:17;4.07;;;0.77;;
23543;SDS011;11950;51.230;4.012;2023-03-14T02:38:44;4.05;;;0.70;;
23543;SDS011;11950;51.230;4.012;2023-03-14T02:41:18;3.20;;;0.57;;
23543;SDS011;11950;51.230;4.012;2023-03-14T02:43:52;3.88;;;0.68;;
23543;SDS011;11950;51.230;4.012;2023-03-14T02:46:20;7.78;;;0.80;;
23543;SDS011;11950;51.230;4.012;2023-03-14T02:48:49;5.75;;;0.60;;
23543;SDS011;11950;51.230;4.012;2023-03-14T02:51:31;4.60;;;0.77;;
23543;SDS011;11950;51.230;4.012;2023-03-14T02:53:58;4.38;;;0.40;;
23543;SDS011;11950;51.230;4.012;2023-03-14T02:56:25;2.33;;;0.52;;
23543;SDS011;11950;51.230;4.012;2023-03-14T02:58:51;4.15;;;0.50;;
23543;SDS011;11950;51.230;4.012;2023-03-14T03:01:38;1.60;;;0.50;;
23543;SDS011;11950;51.230;4.012;2023-03-14T03:04:04;4.32;;;0.50;;
23543;SDS011;11950;51.230;4.012;2023-03-14T03:06:30;2.25;;;0.40;;
23543;SDS011;11950;51.230;4.012;2023-03-14T03:08:57;1.63;;;0.30;;
23543;SDS011;11950;51.230;4.012;2023-03-14T03:11:23;2.00;;;0.30;;
23543;SDS011;11950;51.230;4.012;2023-03-14T03:13:49;2.63;;;0.40;;
23543;SDS011;11950;51.230;4.012;2023-03-14T03:16:16;5.15;;;0.40;;
23543;SDS011;11950;51.230;4.012;2023-03-14T03:18:42;3.45;;;0.50;;
23543;SDS011;11950;51.230;4.012;2023-03-14T03:21:08;1.30;;;0.30;;
23543;SDS011;11950;51.230;4.012;2023-03-14T03:23:35;2.80;;;0.35;;
23543;SDS011;11950;51.230;4.012;2023-03-14T03:26:05;1.77;;;0.30;;
23543;SDS011;11950;51.230;4.012;2023-03-14T03:28:31;1.83;;;0.32;;
23543;SDS011;11950;51.230;4.012;2023-03-14T03:30:59;3.58;;;0.40;;
23543;SDS011;11950;51.230;4.012;2023-03-14T03:33:32;2.53;;;0.40;;
23543;SDS011;11950;51.230;4.012;2023-03-14T03:35:58;1.50;;;0.32;;
23543;SDS011;11950;51.230;4.012;2023-03-14T03:40:57;2.72;;;0.40;;
23543;SDS011;11950;51.230;4.012;2023-03-14T03:43:26;2.17;;;0.70;;
23543;SDS011;11950;51.230;4.012;2023-03-14T03:45:53;1.40;;;0.40;;
23543;SDS011;11950;51.230;4.012;2023-03-14T03:48:22;1.50;;;0.43;;
23543;SDS011;11950;51.230;4.012;2023-03-14T03:50:48;2.88;;;0.47;;
23543;SDS011;11950;51.230;4.012;2023-03-14T03:53:18;2.45;;;0.40;;
23543;SDS011;11950;51.230;4.012;2023-03-14T03:55:45;4.93;;;0.50;;
23543;SDS011;11950;51.230;4.012;2023-03-14T03:58:11;3.70;;;0.60;;
23543;SDS011;11950;51.230;4.012;2023-03-14T04:00:38;2.65;;;0.60;;
23543;SDS011;11950;51.230;4.012;2023-03-14T04:03:05;1.95;;;0.60;;
23543;SDS011;11950;51.230;4.012;2023-03-14T04:05:31;4.18;;;0.68;;
23543;SDS011;11950;51.230;4.012;2023-03-14T04:08:02;1.75;;;0.43;;
23543;SDS011;11950;51.230;4.012;2023-03-14T04:10:30;2.92;;;0.60;;
23543;SDS011;11950;51.230;4.012;2023-03-14T04:13:11;2.85;;;0.40;;
23543;SDS011;11950;51.230;4.012;2023-03-14T04:15:39;2.80;;;0.60;;
23543;SDS011;11950;51.230;4.012;2023-03-14T04:18:15;4.22;;;0.70;;
23543;SDS011;11950;51.230;4.012;2023-03-14T04:20:42;1.73;;;0.68;;
23543;SDS011;11950;51.230;4.012;2023-03-14T04:23:10;2.75;;;0.60;;
23543;SDS011;11950;51.230;4.012;2023-03-14T04:25:37;2.97;;;0.70;;
23543;SDS011;11950;51.230;4.012;2023-03-14T04:28:04;3.58;;;0.85;;
23543;SDS011;11950;51.230;4.012;2023-03-14T04:30:32;4.80;;;0.80;;
23543;SDS011;11950;51.230;4.012;2023-03-14T04:33:03;3.38;;;1.08;;
23543;SDS011;11950;51.230;4.012;2023-03-14T04:35:32;4.70;;;0.88;;
23543;SDS011;11950;51.230;4.012;2023-03-14T04:38:03;2.58;;;0.80;;
23543;SDS011;11950;51.230;4.012;2023-03-14T04:40:31;1.55;;;0.65;;
23543;SDS011;11950;51.230;4.012;2023-03-14T04:43:02;3.30;;;0.90;;
23543;SDS011;11950;51.230;4.012;2023-03-14T04:45:31;1.70;;;0.70;;
23543;SDS011;11950;51.230;4.012;2023-03-14T04:47:59;6.00;;;0.90;;
23543;SDS011;11950;51.230;4.012;2023-03-14T04:50:25;3.38;;;0.95;;
23543;SDS011;11950;51.230;4.012;2023-03-14T04:52:52;3.72;;;0.93;;
23543;SDS011;11950;51.230;4.012;2023-03-14T04:55:19;4.70;;;0.90;;
23543;SDS011;11950;51.230;4.012;2023-03-14T04:57:45;3.45;;;1.00;;
23543;SDS011;11950;51.230;4.012;2023-03-14T05:00:11;2.45;;;1.00;;
23543;SDS011;11950;51.230;4.012;2023-03-14T05:02:56;3.70;;;1.40;;
23543;SDS011;11950;51.230;4.012;2023-03-14T05:05:41;2.60;;;1.13;;
23543;SDS011;11950;51.230;4.012;2023-03-14T05:08:11;2.60;;;1.10;;
23543;SDS011;11950;51.230;4.012;2023-03-14T05:10:52;4.55;;;1.30;;
23543;SDS011;11950;51.230;4.012;2023-03-14T05:13:48;3.20;;;1.23;;
23543;SDS011;11950;51.230;4.012;2023-03-14T05:16:32;2.65;;;1.33;;
23543;SDS011;11950;51.230;4.012;2023-03-14T05:19:10;3.10;;;1.17;;
23543;SDS011;11950;51.230;4.012;2023-03-14T05:22:08;4.10;;;1.40;;
23543;SDS011;11950;51.230;4.012;2023-03-14T05:24:54;3.67;;;1.45;;
23543;SDS011;11950;51.230;4.012;2023-03-14T05:27:42;3.70;;;1.20;;
23543;SDS011;11950;51.230;4.012;2023-03-14T05:30:25;4.55;;;1.70;;
23543;SDS011;11950;51.230;4.012;2023-03-14T05:33:16;5.47;;;1.70;;
23543;SDS011;11950;51.230;4.012;2023-03-14T05:36:03;2.40;;;1.10;;
23543;SDS011;11950;51.230;4.012;2023-03-14T05:38:41;5.30;;;1.38;;
23543;SDS011;11950;51.230;4.012;2023-03-14T05:41:36;1.88;;;1.10;;
23543;SDS011;11950;51.230;4.012;2023-03-14T05:44:21;3.17;;;1.13;;
23543;SDS011;11950;51.230;4.012;2023-03-14T05:46:50;1.98;;;1.13;;
23543;SDS011;11950;51.230;4.012;2023-03-14T05:49:35;4.25;;;1.13;;
23543;SDS011;11950;51.230;4.012;2023-03-14T05:52:15;5.30;;;1.20;;
23543;SDS011;11950;51.230;4.012;2023-03-14T05:54:53;2.10;;;1.17;;
23543;SDS011;11950;51.230;4.012;2023-03-14T05:57:40;3.33;;;1.20;;
23543;SDS011;11950;51.230;4.012;2023-03-14T06:00:32;3.13;;;1.45;;
23543;SDS011;11950;51.230;4.012;2023-03-14T06:03:16;1.00;;;0.60;;
23543;SDS011;11950;51.230;4.012;2023-03-14T06:05:45;4.22;;;0.47;;
23543;SDS011;11950;51.230;4.012;2023-03-14T06:08:11;0.90;;;0.30;;
23543;SDS011;11950;51.230;4.012;2023-03-14T06:10:38;2.95;;;0.40;;
23543;SDS011;11950;51.230;4.012;2023-03-14T06:13:04;1.90;;;0.55;;
23543;SDS011;11950;51.230;4.012;2023-03-14T06:15:33;4.68;;;0.40;;
23543;SDS011;11950;51.230;4.012;2023-03-14T06:21:54;2.53;;;0.38;;
23543;SDS011;11950;51.230;4.012;2023-03-14T06:24:22;2.58;;;0.30;;
23543;SDS011;11950;51.230;4.012;2023-03-14T06:26:51;2.22;;;0.50;;
23543;SDS011;11950;51.230;4.012;2023-03-14T06:32:34;1.63;;;0.40;;
23543;SDS011;11950;51.230;4.012;2023-03-14T06:35:06;1.63;;;0.43;;
23543;SDS011;11950;51.230;4.012;2023-03-14T06:37:37;3.75;;;0.40;;
23543;SDS011;11950;51.230;4.012;2023-03-14T06:40:04;1.40;;;0.40;;
23543;SDS011;11950;51.230;4.012;2023-03-14T06:43:02;4.28;;;0.40;;
23543;SDS011;11950;51.230;4.012;2023-03-14T06:45:30;2.72;;;0.60;;
23543;SDS011;11950;51.230;4.012;2023-03-14T06:47:58;1.77;;;0.40;;
23543;SDS011;11950;51.230;4.012;2023-03-14T06:50:34;3.67;;;0.50;;
23543;SDS011;11950;51.230;4.012;2023-03-14T06:53:01;4.00;;;1.00;;
23543;SDS011;11950;51.230;4.012;2023-03-14T06:55:28;3.83;;;1.10;;
23543;SDS011;11950;51.230;4.012;2023-03-14T06:57:54;4.10;;;1.08;;
23543;SDS011;11950;51.230;4.012;2023-03-14T07:00:21;3.42;;;1.40;;
23543;SDS011;11950;51.230;4.012;2023-03-14T07:02:49;5.63;;;1.40;;
23543;SDS011;11950;51.230;4.012;2023-03-14T07:05:26;6.25;;;1.50;;
23543;SDS011;11950;51.230;4.012;2023-03-14T07:07:53;4.97;;;1.10;;
23543;SDS011;11950;51.230;4.012;2023-03-14T07:10:20;3.15;;;1.02;;
23543;SDS011;11950;51.230;4.012;2023-03-14T07:12:46;6.85;;;1.13;;
23543;SDS011;11950;51.230;4.012;2023-03-14T07:15:13;7.10;;;1.92;;
23543;SDS011;11950;51.230;4.012;2023-03-14T07:17:39;4.03;;;1.30;;
23543;SDS011;11950;51.230;4.012;2023-03-14T07:20:06;3.53;;;1.20;;
23543;SDS011;11950;51.230;4.012;2023-03-14T07:22:33;5.15;;;1.20;;
23543;SDS011;11950;51.230;4.012;2023-03-14T07:25:00;8.40;;;1.20;;
23543;SDS011;11950;51.230;4.012;2023-03-14T07:27:26;6.55;;;1.17;;
23543;SDS011;11950;51.230;4.012;2023-03-14T07:29:53;4.63;;;0.90;;
23543;SDS011;11950;51.230;4.012;2023-03-14T07:32:19;1.88;;;0.70;;
23543;SDS011;11950;51.230;4.012;2023-03-14T07:34:46;4.38;;;0.82;;
23543;SDS011;11950;51.230;4.012;2023-03-14T07:37:13;5.55;;;0.90;;
23543;SDS011;11950;51.230;4.012;2023-03-14T07:39:41;4.28;;;0.75;;
23543;SDS011;11950;51.230;4.012;2023-03-14T07:42:14;4.22;;;0.47;;
23543;SDS011;11950;51.230;4.012;2023-03-14T07:45:01;3.00;;;0.60;;
23543;SDS011;11950;51.230;4.012;2023-03-14T07:47:28;1.17;;;0.40;;
23543;SDS011;11950;51.230;4.012;2023-03-14T07:49:54;5.22;;;0.90;;
23543;SDS011;11950;51.230;4.012;2023-03-14T07:52:21;4.20;;;0.70;;
23543;SDS011;11950;51.230;4.012;2023-03-14T07:54:47;1.52;;;0.50;;
23543;SDS011;11950;51.230;4.012;2023-03-14T07:57:13;1.23;;;0.40;;
23543;SDS011;11950;51.230;4.012;2023-03-14T07:59:40;1.92;;;0.63;;
23543;SDS011;11950;51.230;4.012;2023-03-14T08:02:08;3.95;;;0.70;;
23543;SDS011;11950;51.230;4.012;2023-03-14T08:04:37;5.18;;;1.10;;
23543;SDS011;11950;51.230;4.012;2023-03-14T08:07:05;4.72;;;1.17;;
23543;SDS011;11950;51.230;4.012;2023-03-14T08:09:31;5.82;;;1.20;;
23543;SDS011;11950;51.230;4.012;2023-03-14T08:11:58;4.03;;;0.88;;
23543;SDS011;11950;51.230;4.012;2023-03-14T08:14:24;3.28;;;0.70;;
23543;SDS011;11950;51.230;4.012;2023-03-14T08:16:50;1.45;;;0.40;;
23543;SDS011;11950;51.230;4.012;2023-03-14T08:19:17;5.40;;;0.60;;
23543;SDS011;11950;51.230;4.012;2023-03-14T08:21:46;3.58;;;0.55;;
23543;SDS011;11950;51.230;4.012;2023-03-14T08:24:12;3.65;;;0.57;;
23543;SDS011;11950;51.230;4.012;2023-03-14T08:26:39;1.15;;;0.50;;
23543;SDS011;11950;51.230;4.012;2023-03-14T08:29:05;1.63;;;0.60;;
23543;SDS011;11950;51.230;4.012;2023-03-14T08:31:32;2.05;;;0.60;;
23543;SDS011;11950;51.230;4.012;2023-03-14T08:34:00;1.83;;;0.50;;
23543;SDS011;11950;51.230;4.012;2023-03-14T08:36:29;4.43;;;0.50;;
23543;SDS011;11950;51.230;4.012;2023-03-14T08:38:57;4.30;;;0.60;;
23543;SDS011;11950;51.230;4.012;2023-03-14T08:41:24;1.30;;;0.50;;
23543;SDS011;11950;51.230;4.012;2023-03-14T08:43:50;2.65;;;0.88;;
23543;SDS011;11950;51.230;4.012;2023-03-14T08:46:17;3.25;;;0.70;;
23543;SDS011;11950;51.230;4.012;2023-03-14T08:48:43;3.65;;;1.40;;
23543;SDS011;11950;51.230;4.012;2023-03-14T08:51:10;2.15;;;0.90;;
23543;SDS011;11950;51.230;4.012;2023-03-14T08:53:39;5.40;;;1.40;;
23543;SDS011;11950;51.230;4.012;2023-03-14T08:56:06;2.60;;;1.00;;
23543;SDS011;11950;51.230;4.012;2023-03-14T08:58:35;6.85;;;1.40;;
23543;SDS011;11950;51.230;4.012;2023-03-14T09:01:04;3.10;;;0.90;;
23543;SDS011;11950;51.230;4.012;2023-03-14T09:03:31;4.45;;;0.90;;
23543;SDS011;11950;51.230;4.012;2023-03-14T09:06:01;3.80;;;1.00;;
23543;SDS011;11950;51.230;4.012;2023-03-14T09:08:29;5.70;;;1.08;;
23543;SDS011;11950;51.230;4.012;2023-03-14T09:10:55;3.30;;;1.30;;
23543;SDS011;11950;51.230;4.012;2023-03-14T09:13:22;4.43;;;1.30;;
23543;SDS011;11950;51.230;4.012;2023-03-14T09:15:54;5.03;;;1.40;;
23543;SDS011;11950;51.230;4.012;2023-03-14T09:18:22;7.07;;;1.77;;
23543;SDS011;11950;51.230;4.012;2023-03-14T09:20:48;5.22;;;2.20;;
23543;SDS011;11950;51.230;4.012;2023-03-14T09:23:15;2.55;;;1.50;;
23543;SDS011;11950;51.230;4.012;2023-03-14T09:25:42;2.33;;;1.50;;
23543;SDS011;11950;51.230;4.012;2023-03-14T09:28:08;3.92;;;1.20;;
23543;SDS011;11950;51.230;4.012;2023-03-14T09:30:34;3.15;;;1.20;;
23543;SDS011;11950;51.230;4.012;2023-03-14T09:33:01;1.13;;;0.88;;
23543;SDS011;11950;51.230;4.012;2023-03-14T09:35:27;1.98;;;0.80;;
23543;SDS011;11950;51.230;4.012;2023-03-14T09:37:54;2.78;;;0.70;;
23543;SDS011;11950;51.230;4.012;2023-03-14T09:40:20;1.80;;;0.77;;
23543;SDS011;11950;51.230;4.012;2023-03-14T09:42:52;1.88;;;0.60;;
23543;SDS011;11950;51.230;4.012;2023-03-14T09:45:25;1.30;;;0.55;;
23543;SDS011;11950;51.230;4.012;2023-03-14T09:47:57;3.58;;;0.63;;
23543;SDS011;11950;51.230;4.012;2023-03-14T09:50:25;2.70;;;0.95;;
23543;SDS011;11950;51.230;4.012;2023-03-14T09:52:56;3.22;;;1.42;;
23543;SDS011;11950;51.230;4.012;2023-03-14T09:55:28;4.45;;;0.75;;
23543;SDS011;11950;51.230;4.012;2023-03-14T09:57:56;2.70;;;0.60;;
23543;SDS011;11950;51.230;4.012;2023-03-14T10:00:26;2.13;;;0.47;;
23543;SDS011;11950;51.230;4.012;2023-03-14T10:05:39;2.47;;;0.32;;
23543;SDS011;11950;51.230;4.012;2023-03-14T10:08:10;3.38;;;0.40;;
23543;SDS011;11950;51.230;4.012;2023-03-14T10:10:38;4.07;;;0.55;;
23543;SDS011;11950;51.230;4.012;2023-03-14T10:13:18;5.28;;;0.60;;
23543;SDS011;11950;51.230;4.012;2023-03-14T10:15:54;5.38;;;0.50;;
23543;SDS011;11950;51.230;4.012;2023-03-14T10:18:24;4.53;;;0.50;;
23543;SDS011;11950;51.230;4.012;2023-03-14T10:21:02;5.80;;;0.60;;
23543;SDS011;11950;51.230;4.012;2023-03-14T10:23:32;4.85;;;0.50;;
23543;SDS011;11950;51.230;4.012;2023-03-14T10:26:03;5.05;;;0.70;;
23543;SDS011;11950;51.230;4.012;2023-03-14T10:28:46;4.47;;;0.80;;
23543;SDS011;11950;51.230;4.012;2023-03-14T10:31:14;7.03;;;1.13;;
23543;SDS011;11950;51.230;4.012;2023-03-14T10:33:57;5.93;;;0.70;;
23543;SDS011;11950;51.230;4.012;2023-03-14T10:36:29;6.35;;;0.60;;
23543;SDS011;11950;51.230;4.012;2023-03-14T10:41:52;7.18;;;0.90;;
23543;SDS011;11950;51.230;4.012;2023-03-14T10:44:23;6.13;;;0.80;;
23543;SDS011;11950;51.230;4.012;2023-03-14T10:47:15;12.23;;;1.02;;
23543;SDS011;11950;51.230;4.012;2023-03-14T10:49:45;7.15;;;0.80;;
23543;SDS011;11950;51.230;4.012;2023-03-14T10:52:13;12.77;;;1.50;;
23543;SDS011;11950;51.230;4.012;2023-03-14T10:54:46;9.63;;;1.75;;
23543;SDS011;11950;51.230;4.012;2023-03-14T10:57:13;12.32;;;1.13;;
23543;SDS011;11950;51.230;4.012;2023-03-14T10:59:39;12.48;;;0.95;;
23543;SDS011;11950;51.230;4.012;2023-03-14T11:07:35;6.68;;;1.25;;
23543;SDS011;11950;51.230;4.012;2023-03-14T11:10:28;7.35;;;0.80;;
23543;SDS011;11950;51.230;4.012;2023-03-14T11:15:58;7.75;;;1.10;;
23543;SDS011;11950;51.230;4.012;2023-03-14T11:18:48;7.85;;;0.98;;
23543;SDS011;11950;51.230;4.012;2023-03-14T11:27:14;9.88;;;0.95;;
23543;SDS011;11950;51.230;4.012;2023-03-14T11:29:55;7.43;;;1.25;;
23543;SDS011;11950;51.230;4.012;2023-03-14T11:35:16;6.35;;;0.90;;
23543;SDS011;11950;51.230;4.012;2023-03-14T11:40:51;6.10;;;0.77;;
23543;SDS011;11950;51.230;4.012;2023-03-14T11:43:20;10.73;;;1.10;;
23543;SDS011;11950;51.230;4.012;2023-03-14T11:46:56;18.02;;;1.52;;
23543;SDS011;11950;51.230;4.012;2023-03-14T11:52:06;12.85;;;1.58;;
23543;SDS011;11950;51.230;4.012;2023-03-14T11:57:18;12.77;;;1.60;;
23543;SDS011;11950;51.230;4.012;2023-03-14T12:02:56;8.88;;;1.25;;
23543;SDS011;11950;51.230;4.012;2023-03-14T12:13:29;17.77;;;2.15;;
23543;SDS011;11950;51.230;4.012;2023-03-14T12:18:56;12.65;;;1.63;;
23543;SDS011;11950;51.230;4.012;2023-03-14T12:21:23;19.63;;;1.70;;
23543;SDS011;11950;51.230;4.012;2023-03-14T12:27:00;17.77;;;1.38;;
23543;SDS011;11950;51.230;4.012;2023-03-14T12:29:28;13.30;;;1.95;;
23543;SDS011;11950;51.230;4.012;2023-03-14T12:32:21;11.00;;;1.40;;
23543;SDS011;11950;51.230;4.012;2023-03-14T12:34:49;15.60;;;2.28;;
23543;SDS011;11950;51.230;4.012;2023-03-14T12:37:49;10.80;;;1.67;;
23543;SDS011;11950;51.230;4.012;2023-03-14T12:40:19;13.68;;;1.42;;
23543;SDS011;11950;51.230;4.012;2023-03-14T12:42:59;16.63;;;1.63;;
23543;SDS011;11950;51.230;4.012;2023-03-14T12:45:30;11.05;;;1.20;;
23543;SDS011;11950;51.230;4.012;2023-03-14T12:48:03;9.65;;;1.48;;
23543;SDS011;11950;51.230;4.012;2023-03-14T12:50:46;9.90;;;1.08;;
23543;SDS011;11950;51.230;4.012;2023-03-14T13:01:27;10.00;;;1.17;;
23543;SDS011;11950;51.230;4.012;2023-03-14T13:11:55;11.63;;;1.52;;
23543;SDS011;11950;51.230;4.012;2023-03-14T13:14:27;6.18;;;0.90;;
23543;SDS011;11950;51.230;4.012;2023-03-14T13:16:58;8.93;;;1.10;;
23543;SDS011;11950;51.230;4.012;2023-03-14T13:19:29;10.15;;;1.08;;
23543;SDS011;11950;51.230;4.012;2023-03-14T13:22:03;7.47;;;0.75;;
23543;SDS011;11950;51.230;4.012;2023-03-14T13:24:35;5.75;;;0.90;;
23543;SDS011;11950;51.230;4.012;2023-03-14T13:27:01;5.22;;;0.88;;
23543;SDS011;11950;51.230;4.012;2023-03-14T13:29:28;7.70;;;0.70;;
23543;SDS011;11950;51.230;4.012;2023-03-14T13:31:59;9.02;;;0.95;;
23543;SDS011;11950;51.230;4.012;2023-03-14T13:34:31;6.63;;;0.70;;
23543;SDS011;11950;51.230;4.012;2023-03-14T13:36:59;7.55;;;1.17;;
23543;SDS011;11950;51.230;4.012;2023-03-14T13:39:26;9.10;;;1.55;;
23543;SDS011;11950;51.230;4.012;2023-03-14T13:41:57;7.28;;;1.10;;
23543;SDS011;11950;51.230;4.012;2023-03-14T13:44:29;5.67;;;0.73;;
23543;SDS011;11950;51.230;4.012;2023-03-14T13:46:58;5.07;;;0.60;;
23543;SDS011;11950;51.230;4.012;2023-03-14T13:49:29;3.33;;;0.77;;
23543;SDS011;11950;51.230;4.012;2023-03-14T13:51:59;2.22;;;0.40;;
23543;SDS011;11950;51.230;4.012;2023-03-14T13:54:26;0.90;;;0.35;;
23543;SDS011;11950;51.230;4.012;2023-03-14T13:57:03;0.98;;;0.20;;
23543;SDS011;11950;51.230;4.012;2023-03-14T13:59:32;0.90;;;0.30;;
23543;SDS011;11950;51.230;4.012;2023-03-14T14:02:01;0.93;;;0.20;;
23543;SDS011;11950;51.230;4.012;2023-03-14T14:04:33;1.15;;;0.40;;
23543;SDS011;11950;51.230;4.012;2023-03-14T14:07:06;1.75;;;0.30;;
23543;SDS011;11950;51.230;4.012;2023-03-14T14:09:39;1.52;;;0.30;;
23543;SDS011;11950;51.230;4.012;2023-03-14T14:12:13;3.42;;;0.30;;
23543;SDS011;11950;51.230;4.012;2023-03-14T14:17:43;2.38;;;0.40;;
23543;SDS011;11950;51.230;4.012;2023-03-14T14:22:57;1.00;;;0.30;;
23543;SDS011;11950;51.230;4.012;2023-03-14T14:25:24;0.50;;;0.50;;
23543;SDS011;11950;51.230;4.012;2023-03-14T14:27:51;2.72;;;0.32;;
23543;SDS011;11950;51.230;4.012;2023-03-14T14:32:44;2.17;;;0.40;;
23543;SDS011;11950;51.230;4.012;2023-03-14T14:35:22;6.45;;;0.65;;
23543;SDS011;11950;51.230;4.012;2023-03-14T14:37:50;3.03;;;0.60;;
23543;SDS011;11950;51.230;4.012;2023-03-14T14:40:21;3.72;;;0.50;;
23543;SDS011;11950;51.230;4.012;2023-03-14T14:42:50;5.93;;;0.60;;
23543;SDS011;11950;51.230;4.012;2023-03-14T14:45:17;3.00;;;0.60;;
23543;SDS011;11950;51.230;4.012;2023-03-14T14:47:49;5.20;;;1.02;;
23543;SDS011;11950;51.230;4.012;2023-03-14T14:50:30;5.85;;;0.68;;
23543;SDS011;11950;51.230;4.012;2023-03-14T14:53:00;8.07;;;0.70;;
23543;SDS011;11950;51.230;4.012;2023-03-14T14:55:32;8.90;;;1.20;;
23543;SDS011;11950;51.230;4.012;2023-03-14T14:58:46;6.97;;;0.80;;
23543;SDS011;11950;51.230;4.012;2023-03-14T15:00:52;9.20;;;1.50;;
23543;SDS011;11950;51.230;4.012;2023-03-14T15:03:38;12.43;;;2.38;;
23543;SDS011;11950;51.230;4.012;2023-03-14T15:06:08;7.43;;;1.00;;
23543;SDS011;11950;51.230;4.012;2023-03-14T15:08:37;13.95;;;2.53;;
23543;SDS011;11950;51.230;4.012;2023-03-14T15:11:04;7.88;;;1.73;;
23543;SDS011;11950;51.230;4.012;2023-03-14T15:13:30;6.43;;;1.00;;
23543;SDS011;11950;51.230;4.012;2023-03-14T15:15:57;6.45;;;1.40;;
23543;SDS011;11950;51.230;4.012;2023-03-14T15:18:24;8.63;;;1.15;;
23543;SDS011;11950;51.230;4.012;2023-03-14T15:20:54;5.88;;;0.80;;
23543;SDS011;11950;51.230;4.012;2023-03-14T15:23:21;9.05;;;1.42;;
23543;SDS011;11950;51.230;4.012;2023-03-14T15:25:48;5.38;;;1.17;;
23543;SDS011;11950;51.230;4.012;2023-03-14T15:28:18;8.15;;;2.22;;
23543;SDS011;11950;51.230;4.012;2023-03-14T15:30:49;6.22;;;1.20;;
23543;SDS011;11950;51.230;4.012;2023-03-14T15:33:18;4.47;;;1.10;;
23543;SDS011;11950;51.230;4.012;2023-03-14T15:35:45;7.38;;;0.70;;
23543;SDS011;11950;51.230;4.012;2023-03-14T15:38:13;9.02;;;0.88;;
23543;SDS011;11950;51.230;4.012;2023-03-14T15:40:42;6.70;;;0.90;;
23543;SDS011;11950;51.230;4.012;2023-03-14T15:43:08;4.88;;;0.95;;
23543;SDS011;11950;51.230;4.012;2023-03-14T15:45:35;4.63;;;0.57;;
23543;SDS011;11950;51.230;4.012;2023-03-14T15:48:01;8.18;;;0.70;;
23543;SDS011;11950;51.230;4.012;2023-03-14T15:50:28;4.13;;;0.77;;
23543;SDS011;11950;51.230;4.012;2023-03-14T15:52:54;4.55;;;0.60;;
23543;SDS011;11950;51.230;4.012;2023-03-14T15:55:22;2.88;;;0.60;;
23543;SDS011;11950;51.230;4.012;2023-03-14T15:57:48;6.78;;;0.75;;
23543;SDS011;11950;51.230;4.012;2023-03-14T16:00:16;5.63;;;0.70;;
23543;SDS011;11950;51.230;4.012;2023-03-14T16:05:15;5.75;;;0.73;;
23543;SDS011;11950;51.230;4.012;2023-03-14T16:07:44;5.70;;;0.80;;
23543;SDS011;11950;51.230;4.012;2023-03-14T16:10:12;5.38;;;0.90;;
23543;SDS011;11950;51.230;4.012;2023-03-14T16:12:39;8.23;;;0.90;;
23543;SDS011;11950;51.230;4.012;2023-03-14T16:15:06;6.40;;;0.98;;
23543;SDS011;11950;51.230;4.012;2023-03-14T16:17:33;7.38;;;1.00;;
23543;SDS011;11950;51.230;4.012;2023-03-14T16:20:00;8.48;;;1.02;;
23543;SDS011;11950;51.230;4.012;2023-03-14T16:22:26;7.82;;;1.00;;
23543;SDS011;11950;51.230;4.012;2023-03-14T16:24:55;6.85;;;0.80;;
23543;SDS011;11950;51.230;4.012;2023-03-14T16:27:21;7.07;;;0.88;;
23543;SDS011;11950;51.230;4.012;2023-03-14T16:29:47;11.02;;;1.20;;
23543;SDS011;11950;51.230;4.012;2023-03-14T16:32:14;10.75;;;1.35;;
23543;SDS011;11950;51.230;4.012;2023-03-14T16:34:40;5.88;;;0.98;;
23543;SDS011;11950;51.230;4.012;2023-03-14T16:37:06;7.40;;;0.90;;
23543;SDS011;11950;51.230;4.012;2023-03-14T16:39:33;6.60;;;1.48;;
23543;SDS011;11950;51.230;4.012;2023-03-14T16:41:59;4.53;;;0.85;;
23543;SDS011;11950;51.230;4.012;2023-03-14T16:44:26;11.15;;;1.00;;
23543;SDS011;11950;51.230;4.012;2023-03-14T16:46:52;5.70;;;1.05;;
23543;SDS011;11950;51.230;4.012;2023-03-14T16:49:18;7.80;;;1.33;;